Time;durP1;ratioP1;P1;durP2;ratioP2;P2;SDS_P1;SDS_P2;PMS_P1;PMS_P2;Temp;Humidity;BMP_temperature;BMP_pressure;BME280_temperature;BME280_humidity;BME280_pressure;Samples;Min_cycle;Max_cycle;Signal;HPM_P1;HPM_P2
2021/09/06 00:02:19;;;;;;;23.87;14.03;;;;;;;12.94;100.00;101975.63;7397278;19;20503;-53
2021/09/06 00:04:51;;;;;;;24.67;14.37;;;;;;;13.07;100.00;101973.63;7404760;19;20685;-54
2021/09/06 00:07:21;;;;;;;26.03;14.80;;;;;;;13.19;100.00;101974.25;7397618;19;20881;-51
2021/09/06 00:10:01;;;;;;;25.30;13.80;;;;;;;13.21;100.00;101970.03;7405383;19;20467;-53
2021/09/06 00:12:30;;;;;;;24.23;15.43;;;;;;;12.81;100.00;101968.91;7375874;19;20437;-55
2021/09/06 00:15:00;;;;;;;23.77;14.50;;;;;;;12.63;100.00;101971.44;7404869;19;20451;-52
2021/09/06 00:17:30;;;;;;;24.90;14.30;;;;;;;12.53;100.00;101963.97;7397722;19;20403;-55
2021/09/06 00:20:02;;;;;;;25.73;14.73;;;;;;;12.45;100.00;101966.13;7404252;19;20388;-56
2021/09/06 00:22:32;;;;;;;24.87;15.37;;;;;;;12.44;100.00;101969.53;7396646;19;20498;-51
2021/09/06 00:25:01;;;;;;;26.37;15.90;;;;;;;12.51;100.00;101971.66;7405004;19;20410;-54
2021/09/06 00:27:31;;;;;;;24.27;13.93;;;;;;;12.35;100.00;101980.28;7397162;19;20433;-51
2021/09/06 00:30:00;;;;;;;30.90;16.33;;;;;;;12.25;100.00;101978.91;7404290;19;20407;-51
2021/09/06 00:32:30;;;;;;;25.47;14.20;;;;;;;12.25;100.00;101973.72;7396446;19;20410;-56
2021/09/06 00:35:02;;;;;;;27.90;15.77;;;;;;;12.45;100.00;101981.66;7404614;19;20416;-59
2021/09/06 00:37:33;;;;;;;27.40;14.50;;;;;;;12.46;100.00;101978.28;7398324;19;20910;-57
2021/09/06 00:40:02;;;;;;;28.47;16.23;;;;;;;12.41;100.00;101964.22;7403180;19;20384;-51
2021/09/06 00:42:31;;;;;;;29.80;15.50;;;;;;;12.43;100.00;101967.78;7394102;19;20474;-56
2021/09/06 00:45:01;;;;;;;26.60;15.33;;;;;;;12.47;100.00;101967.13;7404355;19;20396;-53
2021/09/06 00:47:31;;;;;;;25.47;13.93;;;;;;;12.48;100.00;101971.50;7396996;19;20419;-55
2021/09/06 00:50:06;;;;;;;22.67;13.67;;;;;;;12.48;100.00;101971.50;7403880;19;20447;-59
2021/09/06 00:52:36;;;;;;;24.93;13.90;;;;;;;12.39;100.00;101971.00;7374750;19;20422;-55
2021/09/06 00:55:06;;;;;;;22.90;13.40;;;;;;;12.41;100.00;101964.22;7403326;19;20451;-48
2021/09/06 00:57:37;;;;;;;28.40;14.10;;;;;;;12.42;100.00;101959.09;7395477;19;20483;-57
2021/09/06 01:00:09;;;;;;;26.07;14.70;;;;;;;12.43;100.00;101960.00;7403443;19;20400;-56
2021/09/06 01:02:39;;;;;;;21.70;13.70;;;;;;;12.51;100.00;101961.28;7395475;19;20502;-58
2021/09/06 01:05:13;;;;;;;23.93;12.90;;;;;;;12.51;100.00;101960.41;7403730;19;20447;-54
2021/09/06 01:07:43;;;;;;;26.13;15.40;;;;;;;12.18;100.00;101950.91;7396345;19;20881;-60
2021/09/06 01:10:15;;;;;;;24.20;14.47;;;;;;;12.04;100.00;101952.75;7403389;19;20392;-53
2021/09/06 01:12:45;;;;;;;22.93;13.80;;;;;;;12.27;100.00;101961.75;7393728;19;20454;-57
2021/09/06 01:15:15;;;;;;;23.47;12.63;;;;;;;12.43;100.00;101970.34;7403172;19;20853;-56
2021/09/06 01:17:45;;;;;;;22.17;14.17;;;;;;;12.43;100.00;101966.06;7394701;19;20498;-55
2021/09/06 01:20:17;;;;;;;25.00;14.03;;;;;;;12.54;100.00;101964.06;7402963;19;20388;-53
2021/09/06 01:22:47;;;;;;;22.97;13.77;;;;;;;12.32;100.00;101964.63;7394630;19;20453;-58
2021/09/06 01:25:17;;;;;;;21.67;13.40;;;;;;;12.22;100.00;101959.75;7403015;19;20720;-60
2021/09/06 01:27:49;;;;;;;24.03;14.03;;;;;;;12.37;100.00;101962.25;7395297;19;20728;-55
2021/09/06 01:30:19;;;;;;;22.40;13.13;;;;;;;12.37;100.00;101959.69;7402428;19;20451;-58
2021/09/06 01:32:48;;;;;;;23.10;13.47;;;;;;;12.28;100.00;101958.38;7394375;19;20418;-55
2021/09/06 01:35:18;;;;;;;26.83;15.13;;;;;;;12.34;100.00;101962.09;7402532;19;20392;-55
2021/09/06 01:37:47;;;;;;;25.97;14.63;;;;;;;12.13;100.00;101955.84;7394952;19;20425;-52
2021/09/06 01:40:18;;;;;;;20.97;11.97;;;;;;;12.11;100.00;101953.97;7402234;19;20452;-57
2021/09/06 01:42:50;;;;;;;19.27;12.73;;;;;;;12.12;100.00;101945.41;7394565;19;20413;-51
2021/09/06 01:45:20;;;;;;;24.50;13.00;;;;;;;12.10;100.00;101952.22;7403122;19;20448;-55
2021/09/06 01:47:56;;;;;;;23.03;13.30;;;;;;;12.22;100.00;101960.63;7384549;19;20419;-57
2021/09/06 01:50:26;;;;;;;20.90;13.17;;;;;;;12.11;100.00;101954.84;7402934;19;20418;-58
2021/09/06 01:52:55;;;;;;;24.73;13.57;;;;;;;12.26;100.00;101953.94;7393326;19;20419;-54
2021/09/06 01:55:25;;;;;;;30.03;15.53;;;;;;;12.22;100.00;101947.69;7401277;19;20396;-54
2021/09/06 01:57:57;;;;;;;25.70;14.13;;;;;;;12.17;100.00;101949.16;7393465;19;20511;-58
2021/09/06 02:00:27;;;;;;;20.93;12.43;;;;;;;12.10;100.00;101941.88;7401638;19;20387;-54
2021/09/06 02:02:56;;;;;;;20.03;11.77;;;;;;;12.00;100.00;101951.66;7393517;19;20429;-57
2021/09/06 02:05:26;;;;;;;20.70;12.03;;;;;;;12.05;100.00;101931.25;7400904;19;20428;-56
2021/09/06 02:07:56;;;;;;;23.50;12.03;;;;;;;12.05;100.00;101932.97;7393728;19;20435;-58
2021/09/06 02:10:25;;;;;;;20.10;12.43;;;;;;;11.89;100.00;101939.81;7401507;19;20384;-57
2021/09/06 02:12:57;;;;;;;19.73;12.60;;;;;;;11.74;100.00;101938.19;7393255;19;20423;-55
2021/09/06 02:15:27;;;;;;;18.20;11.40;;;;;;;11.61;100.00;101944.38;7400631;19;20443;-52
2021/09/06 02:17:56;;;;;;;20.67;12.37;;;;;;;11.47;100.00;101943.59;7392937;19;20443;-56
2021/09/06 02:20:26;;;;;;;20.40;12.30;;;;;;;11.44;100.00;101945.09;7400114;19;20475;-54
2021/09/06 02:22:55;;;;;;;25.23;12.50;;;;;;;11.50;100.00;101954.88;7392888;19;20482;-58
2021/09/06 02:25:25;;;;;;;27.03;12.47;;;;;;;11.47;100.00;101953.91;7399822;19;20878;-51
2021/09/06 02:27:57;;;;;;;18.60;12.60;;;;;;;11.38;100.00;101957.66;7394816;19;20514;-60
2021/09/06 02:30:26;;;;;;;24.57;12.90;;;;;;;11.69;100.00;101962.88;7400649;19;20383;-59
2021/09/06 02:32:56;;;;;;;19.33;12.03;;;;;;;12.10;100.00;101952.22;7393017;19;20452;-54
2021/09/06 02:35:25;;;;;;;28.50;15.77;;;;;;;12.04;100.00;101950.16;7399936;19;20380;-57
2021/09/06 02:37:55;;;;;;;28.27;15.10;;;;;;;12.02;100.00;101957.78;7392551;19;20431;-49
2021/09/06 02:40:24;;;;;;;24.77;13.10;;;;;;;12.00;100.00;101964.59;7400206;19;20396;-59
2021/09/06 02:42:56;;;;;;;23.50;12.77;;;;;;;12.20;100.00;101956.19;7391181;19;20439;-56
2021/09/06 02:45:26;;;;;;;24.90;12.33;;;;;;;12.35;100.00;101951.81;7399808;19;20390;-54
2021/09/06 02:47:56;;;;;;;26.47;12.37;;;;;;;12.52;100.00;101951.84;7393719;19;20490;-55
2021/09/06 02:50:25;;;;;;;22.20;12.10;;;;;;;12.61;100.00;101956.63;7400235;19;20384;-61
2021/09/06 02:52:55;;;;;;;20.00;11.87;;;;;;;12.50;100.00;101949.16;7392223;19;21276;-57
2021/09/06 02:55:24;;;;;;;17.47;10.70;;;;;;;12.55;100.00;101941.63;7399404;19;20387;-51
2021/09/06 02:57:57;;;;;;;16.80;10.73;;;;;;;12.42;100.00;101934.94;7392110;19;20437;-58
2021/09/06 03:00:26;;;;;;;24.00;11.53;;;;;;;12.35;100.00;101930.25;7399801;19;20451;-55
2021/09/06 03:02:56;;;;;;;20.03;11.07;;;;;;;12.43;100.00;101936.72;7390848;19;20427;-53
2021/09/06 03:05:25;;;;;;;20.87;11.83;;;;;;;12.20;100.00;101925.13;7397233;19;20858;-57
2021/09/06 03:07:55;;;;;;;23.37;14.30;;;;;;;11.76;100.00;101925.34;7395866;19;20434;-60
2021/09/06 03:10:24;;;;;;;21.33;13.20;;;;;;;11.44;100.00;101929.59;7399540;19;20443;-58
2021/09/06 03:12:57;;;;;;;19.20;12.30;;;;;;;11.68;100.00;101936.94;7394843;19;20443;-56
2021/09/06 03:15:26;;;;;;;24.53;13.37;;;;;;;11.72;100.00;101937.22;7398841;19;20447;-52
2021/09/06 03:17:56;;;;;;;18.70;11.50;;;;;;;11.88;100.00;101935.47;7372312;19;20450;-57
2021/09/06 03:20:26;;;;;;;17.97;10.50;;;;;;;11.74;100.00;101927.84;7398381;19;20666;-51
2021/09/06 03:22:55;;;;;;;17.63;11.27;;;;;;;11.96;100.00;101921.28;7394523;19;20453;-56
2021/09/06 03:25:25;;;;;;;15.43;10.30;;;;;;;11.91;100.00;101927.88;7398486;19;20391;-55
2021/09/06 03:27:57;;;;;;;16.50;9.83;;;;;;;11.81;100.00;101918.75;7395800;19;20494;-54
2021/09/06 03:30:26;;;;;;;20.90;11.20;;;;;;;11.69;100.00;101918.94;7398982;19;20451;-57
2021/09/06 03:32:56;;;;;;;18.40;10.00;;;;;;;11.86;100.00;101918.97;7394130;19;20447;-57
2021/09/06 03:35:25;;;;;;;18.80;10.20;;;;;;;11.77;100.00;101910.69;7398168;19;20693;-53
2021/09/06 03:37:55;;;;;;;21.37;10.43;;;;;;;11.83;100.00;101913.63;7394311;19;20495;-58
2021/09/06 03:40:24;;;;;;;19.90;11.50;;;;;;;11.77;100.00;101900.34;7397797;19;20451;-56
2021/09/06 03:42:56;;;;;;;22.17;11.23;;;;;;;12.05;100.00;101907.09;7393916;19;20493;-51
2021/09/06 03:45:26;;;;;;;20.20;11.37;;;;;;;11.58;100.00;101909.69;7398174;19;20391;-60
2021/09/06 03:47:55;;;;;;;23.30;12.27;;;;;;;11.64;100.00;101910.03;7394984;19;20435;-57
2021/09/06 03:50:25;;;;;;;21.50;12.10;;;;;;;11.60;100.00;101911.53;7398407;19;20459;-59
2021/09/06 03:52:54;;;;;;;22.90;11.70;;;;;;;11.96;100.00;101910.03;7393808;19;20413;-57
2021/09/06 03:55:24;;;;;;;20.13;11.80;;;;;;;12.07;100.00;101901.19;7397673;19;20870;-59
2021/09/06 03:57:56;;;;;;;21.00;12.77;;;;;;;11.81;100.00;101902.31;7370687;19;20442;-54
2021/09/06 04:00:26;;;;;;;29.40;13.40;;;;;;;11.75;100.00;101903.75;7398047;19;20396;-55
2021/09/06 04:02:55;;;;;;;22.53;12.13;;;;;;;11.97;100.00;101904.03;7392937;19;20419;-59
2021/09/06 04:05:25;;;;;;;28.90;13.47;;;;;;;11.81;100.00;101902.31;7397436;19;20392;-55
2021/09/06 04:07:55;;;;;;;24.10;12.50;;;;;;;11.82;100.00;101899.81;7391059;19;20774;-58
2021/09/06 04:10:24;;;;;;;23.03;13.10;;;;;;;11.71;100.00;101907.00;7397892;19;20479;-55
2021/09/06 04:12:56;;;;;;;23.80;13.37;;;;;;;11.78;100.00;101909.94;7388986;19;20940;-59
2021/09/06 04:15:26;;;;;;;29.03;14.53;;;;;;;11.65;100.00;101911.81;7396999;19;20395;-55
2021/09/06 04:17:55;;;;;;;35.03;15.40;;;;;;;11.42;100.00;101919.16;7397459;19;20511;-60
2021/09/06 04:20:25;;;;;;;31.60;15.33;;;;;;;11.26;100.00;101921.66;7404918;19;21253;-59
2021/09/06 04:22:54;;;;;;;32.90;15.07;;;;;;;11.19;100.00;101926.47;7396370;19;20486;-57
2021/09/06 04:25:24;;;;;;;42.30;15.23;;;;;;;11.29;100.00;101927.91;7404300;19;20447;-58
2021/09/06 04:27:57;;;;;;;74.27;15.33;;;;;;;10.79;100.00;101929.31;7397782;19;20495;-57
2021/09/06 04:30:26;;;;;;;51.43;15.60;;;;;;;11.00;100.00;101939.13;7408711;19;20478;-58
2021/09/06 04:32:56;;;;;;;42.40;16.80;;;;;;;11.22;100.00;101936.09;7395348;19;20435;-57
2021/09/06 04:35:25;;;;;;;30.60;14.13;;;;;;;11.35;100.00;101937.72;7403999;19;20384;-57
2021/09/06 04:37:55;;;;;;;34.90;14.77;;;;;;;11.53;100.00;101936.97;7397186;19;20434;-57
2021/09/06 04:40:24;;;;;;;31.53;15.40;;;;;;;10.98;100.00;101935.56;7404404;19;20389;-56
2021/09/06 04:42:56;;;;;;;26.73;14.60;;;;;;;10.90;100.00;101941.16;7395811;19;20877;-53
2021/09/06 04:45:26;;;;;;;31.57;17.03;;;;;;;11.11;100.00;101948.41;7404543;19;20439;-58
2021/09/06 04:47:56;;;;;;;44.00;19.00;;;;;;;11.05;100.00;101943.78;7397291;19;20429;-50
2021/09/06 04:50:25;;;;;;;40.23;16.33;;;;;;;10.74;100.00;101947.13;7403218;19;20447;-53
2021/09/06 04:52:55;;;;;;;40.97;15.60;;;;;;;10.97;100.00;101950.16;7394800;19;20511;-57
2021/09/06 04:55:25;;;;;;;35.43;17.07;;;;;;;10.94;100.00;101960.31;7403816;19;20482;-54
2021/09/06 04:57:57;;;;;;;33.20;16.10;;;;;;;10.86;100.00;101962.44;7396388;19;20495;-51
2021/09/06 05:00:27;;;;;;;30.00;15.67;;;;;;;11.24;100.00;101965.50;7403671;19;20465;-57
2021/09/06 05:02:57;;;;;;;38.03;15.67;;;;;;;11.31;100.00;101959.00;7395095;19;20408;-57
2021/09/06 05:05:26;;;;;;;60.57;17.30;;;;;;;11.05;100.00;101963.53;7403139;19;20455;-58
2021/09/06 05:07:56;;;;;;;35.87;18.37;;;;;;;11.02;100.00;101968.53;7395857;19;20438;-54
2021/09/06 05:10:26;;;;;;;32.03;16.30;;;;;;;11.17;100.00;101969.41;7403354;19;20847;-58
2021/09/06 05:12:58;;;;;;;39.10;15.93;;;;;;;10.89;100.00;101967.78;7394478;19;20497;-58
2021/09/06 05:15:27;;;;;;;42.97;15.37;;;;;;;10.45;100.00;101966.00;7402738;19;20388;-60
2021/09/06 05:17:57;;;;;;;72.53;18.00;;;;;;;10.37;100.00;101971.50;7396255;19;20502;-58
2021/09/06 05:20:26;;;;;;;44.50;21.90;;;;;;;10.42;100.00;101978.66;7403083;19;20388;-58
2021/09/06 05:22:56;;;;;;;46.30;17.33;;;;;;;10.55;100.00;101990.66;7392298;19;20438;-52
2021/09/06 05:25:26;;;;;;;45.23;18.57;;;;;;;10.55;100.00;101991.53;7402342;19;20453;-61
2021/09/06 05:27:58;;;;;;;44.20;20.87;;;;;;;10.54;100.00;102000.09;7393743;19;20419;-55
2021/09/06 05:30:27;;;;;;;53.10;18.37;;;;;;;10.50;100.00;102003.25;7402528;19;20396;-60
2021/09/06 05:32:57;;;;;;;44.40;19.50;;;;;;;10.49;100.00;102001.47;7394529;19;20949;-52
2021/09/06 05:35:26;;;;;;;39.37;18.67;;;;;;;10.36;100.00;102011.00;7401750;19;20395;-56
2021/09/06 05:37:56;;;;;;;52.80;20.80;;;;;;;10.29;100.00;102014.00;7395104;19;20709;-54
2021/09/06 05:40:25;;;;;;;59.77;21.30;;;;;;;10.35;100.00;102011.81;7399982;19;20898;-54
2021/09/06 05:42:58;;;;;;;50.30;21.70;;;;;;;10.35;100.00;102022.13;7394229;19;20443;-54
2021/09/06 05:45:27;;;;;;;45.33;20.90;;;;;;;10.42;100.00;102026.00;7401587;19;20388;-57
2021/09/06 05:47:57;;;;;;;40.50;19.60;;;;;;;10.48;100.00;102026.41;7393700;19;20424;-60
2021/09/06 05:50:26;;;;;;;36.73;19.20;;;;;;;10.55;100.00;102025.09;7401983;19;20392;-58
2021/09/06 05:52:56;;;;;;;40.20;18.87;;;;;;;10.48;100.00;102031.56;7393709;19;20423;-57
2021/09/06 05:55:26;;;;;;;46.73;19.90;;;;;;;10.39;100.00;102031.84;7401259;19;20878;-55
2021/09/06 05:58:01;;;;;;;46.87;20.00;;;;;;;10.40;100.00;102036.22;7394819;19;20415;-54
2021/09/06 06:00:31;;;;;;;35.83;20.40;;;;;;;10.44;100.00;102039.00;7399643;19;20410;-54
2021/09/06 06:03:00;;;;;;;52.67;17.73;;;;;;;10.44;100.00;102039.00;7393343;19;20751;-60
2021/09/06 06:05:30;;;;;;;70.77;20.43;;;;;;;10.42;100.00;102035.41;7400340;19;20735;-57
2021/09/06 06:08:00;;;;;;;39.20;21.57;;;;;;;10.43;100.00;102032.97;7393882;19;20698;-54
2021/09/06 06:10:30;;;;;;;57.73;20.70;;;;;;;10.46;100.00;102037.44;7401447;19;20471;-52
2021/09/06 06:13:02;;;;;;;43.30;17.87;;;;;;;10.49;100.00;102038.53;7393030;19;20415;-53
2021/09/06 06:15:31;;;;;;;37.30;19.77;;;;;;;10.53;100.00;102039.59;7400709;19;20909;-60
2021/09/06 06:18:01;;;;;;;34.33;17.70;;;;;;;10.57;100.00;102040.69;7394419;19;20470;-58
2021/09/06 06:20:30;;;;;;;38.17;19.10;;;;;;;10.70;100.00;102047.47;7399316;19;20412;-53
2021/09/06 06:23:00;;;;;;;37.23;16.83;;;;;;;10.83;100.00;102044.88;7392995;19;20960;-59
2021/09/06 06:25:30;;;;;;;45.43;18.00;;;;;;;11.00;100.00;102045.00;7399758;19;20395;-60
2021/09/06 06:28:02;;;;;;;36.10;15.33;;;;;;;10.83;100.00;102034.56;7393866;19;20438;-56
2021/09/06 06:30:31;;;;;;;37.30;16.00;;;;;;;10.88;100.00;102040.00;7400714;19;20392;-57
2021/09/06 06:33:01;;;;;;;39.50;18.27;;;;;;;11.01;100.00;102044.19;7380529;19;20435;-56
2021/09/06 06:35:30;;;;;;;37.37;17.27;;;;;;;11.31;100.00;102047.75;7399938;19;20452;-55
2021/09/06 06:38:01;;;;;;;27.63;16.23;;;;;;;11.64;100.00;102056.50;7396007;19;20905;-55
2021/09/06 06:40:31;;;;;;;27.30;16.83;;;;;;;11.87;100.00;102053.53;7395996;19;20392;-54
2021/09/06 06:43:04;;;;;;;34.57;18.10;;;;;;;11.99;100.00;102044.69;7382663;19;20972;-55
2021/09/06 06:45:33;;;;;;;34.13;17.30;;;;;;;12.05;100.00;102039.00;7399715;19;20398;-58
2021/09/06 06:48:03;;;;;;;33.90;16.57;;;;;;;11.93;100.00;102027.13;7391898;19;20710;-55
2021/09/06 06:50:32;;;;;;;27.80;17.30;;;;;;;11.94;100.00;102023.72;7399984;19;20456;-60
2021/09/06 06:53:02;;;;;;;38.33;18.97;;;;;;;11.99;100.00;102026.56;7391927;19;20479;-56
2021/09/06 06:55:31;;;;;;;32.53;20.90;;;;;;;12.31;100.00;102029.22;7399351;19;20723;-60
2021/09/06 06:58:03;;;;;;;27.87;15.60;;;;;;;12.47;100.00;102031.84;7392873;19;20417;-58
2021/09/06 07:00:33;;;;;;;28.17;16.87;;;;;;;12.64;100.00;102029.25;7397460;19;20388;-57
2021/09/06 07:03:03;;;;;;;41.60;22.47;;;;;;;12.71;100.00;102033.06;7391399;19;20889;-57
2021/09/06 07:05:33;;;;;;;43.60;21.70;;;;;;;12.73;100.00;102034.94;7399032;19;20420;-55
2021/09/06 07:08:02;;;;;;;35.53;19.50;;;;;;;12.69;100.00;102033.00;7392938;19;20423;-58
2021/09/06 07:10:32;;;;;;;38.37;20.60;;;;;;;12.63;100.00;102025.78;7399568;19;20405;-56
2021/09/06 07:13:04;;;;;;;38.93;20.17;;;;;;;12.86;100.00;102031.28;7391313;19;20419;-53
2021/09/06 07:15:34;;;;;;;36.10;20.70;;;;;;;12.85;100.00;102033.78;7398814;19;20658;-58
2021/09/06 07:18:04;;;;;;;39.67;22.93;;;;;;;13.06;100.00;102032.34;7391525;19;20695;-56
2021/09/06 07:20:34;;;;;;;35.67;20.57;;;;;;;13.26;100.00;102028.97;7397935;19;20535;-53
2021/09/06 07:23:03;;;;;;;41.23;21.87;;;;;;;13.46;100.00;102024.84;7391130;19;20640;-56
2021/09/06 07:25:33;;;;;;;35.03;18.80;;;;;;;13.68;100.00;102026.78;7398447;19;20459;-57
2021/09/06 07:28:06;;;;;;;46.40;23.30;;;;;;;13.78;100.00;102022.94;7392054;19;20418;-57
2021/09/06 07:30:35;;;;;;;42.47;21.20;;;;;;;13.67;100.00;102022.44;7398950;19;20410;-58
2021/09/06 07:33:06;;;;;;;34.70;19.63;;;;;;;13.65;100.00;102024.06;7390634;19;20866;-54
2021/09/06 07:35:36;;;;;;;40.90;20.00;;;;;;;13.57;100.00;102017.59;7398179;19;20388;-55
2021/09/06 07:38:06;;;;;;;37.27;20.70;;;;;;;13.60;100.00;102028.13;7390784;19;20478;-55
2021/09/06 07:40:35;;;;;;;36.73;20.30;;;;;;;13.69;100.00;102019.91;7397496;19;20456;-56
2021/09/06 07:43:07;;;;;;;40.03;21.83;;;;;;;13.83;100.00;102031.84;7390469;19;20411;-60
2021/09/06 07:45:37;;;;;;;32.80;18.30;;;;;;;13.89;100.00;102024.38;7398094;19;20391;-51
2021/09/06 07:48:07;;;;;;;34.83;19.47;;;;;;;14.09;100.00;102028.75;7391466;19;20427;-50
2021/09/06 07:50:37;;;;;;;36.37;21.57;;;;;;;14.15;100.00;102024.72;7399004;19;20376;-52
2021/09/06 07:53:06;;;;;;;37.00;21.30;;;;;;;14.27;100.00;102028.72;7397039;19;20490;-50
2021/09/06 07:55:36;;;;;;;36.70;19.10;;;;;;;14.35;100.00;102031.66;7404193;19;20665;-58
2021/09/06 07:58:08;;;;;;;35.00;20.90;;;;;;;14.38;100.00;102027.50;7398647;19;20487;-58
2021/09/06 08:00:38;;;;;;;32.77;18.70;;;;;;;14.41;100.00;102032.81;7404267;19;20384;-50
2021/09/06 08:03:08;;;;;;;37.27;20.57;;;;;;;14.39;100.00;102024.09;7396186;19;20777;-51
2021/09/06 08:05:38;;;;;;;40.40;20.63;;;;;;;14.52;100.00;102022.06;7404961;19;20392;-53
2021/09/06 08:08:07;;;;;;;37.40;20.33;;;;;;;14.53;100.00;102027.34;7398495;19;20431;-52
2021/09/06 08:10:37;;;;;;;36.93;19.80;;;;;;;14.43;100.00;102026.03;7405366;19;20404;-55
2021/09/06 08:13:09;;;;;;;35.23;20.10;;;;;;;14.55;100.00;102025.69;7396651;19;20706;-58
2021/09/06 08:15:39;;;;;;;36.73;19.23;;;;;;;14.74;100.00;102025.63;7403891;19;20397;-53
2021/09/06 08:18:09;;;;;;;35.13;19.33;;;;;;;14.83;100.00;102024.34;7398352;19;20917;-53
2021/09/06 08:20:39;;;;;;;35.87;18.83;;;;;;;14.92;100.00;102026.47;7403880;19;20451;-52
2021/09/06 08:23:09;;;;;;;34.57;19.90;;;;;;;15.04;100.00;102035.63;7395487;19;20777;-57
2021/09/06 08:25:38;;;;;;;31.47;17.33;;;;;;;15.08;100.00;102028.03;7404317;19;20669;-55
2021/09/06 08:28:11;;;;;;;33.50;17.03;;;;;;;15.10;100.00;102029.00;7397861;19;20717;-52
2021/09/06 08:30:40;;;;;;;35.90;18.43;;;;;;;15.25;100.00;102026.16;7404424;19;20412;-50
2021/09/06 08:33:10;;;;;;;30.33;16.00;;;;;;;15.35;100.00;102034.34;7395065;19;20411;-52
2021/09/06 08:35:39;;;;;;;27.27;16.20;;;;;;;15.45;100.00;102023.53;7403996;19;20409;-51
2021/09/06 08:38:09;;;;;;;26.67;16.37;;;;;;;15.44;100.00;102036.44;7397327;19;20486;-52
2021/09/06 08:40:39;;;;;;;25.00;16.07;;;;;;;15.68;100.00;102035.69;7406777;19;20408;-57
2021/09/06 08:43:13;;;;;;;24.33;14.23;;;;;;;15.68;100.00;102031.38;7395534;19;20696;-47
2021/09/06 08:45:43;;;;;;;28.10;15.23;;;;;;;15.66;100.00;102033.91;7403739;19;20907;-55
2021/09/06 08:48:13;;;;;;;27.77;15.07;;;;;;;15.75;100.00;102028.19;7397070;19;20507;-52
2021/09/06 08:50:43;;;;;;;30.60;14.50;;;;;;;15.94;100.00;102021.16;7403192;19;20737;-55
2021/09/06 08:53:12;;;;;;;26.00;14.83;;;;;;;16.08;100.00;102024.31;7395292;19;20419;-56
2021/09/06 08:55:42;;;;;;;26.33;14.70;;;;;;;16.15;100.00;102028.91;7403444;19;20417;-59
2021/09/06 08:58:34;;;;;;;24.67;13.80;;;;;;;16.29;100.00;102024.25;7402749;19;20416;-53
2021/09/06 09:01:04;;;;;;;25.50;14.20;;;;;;;16.43;100.00;102023.88;7399516;19;20841;-54
2021/09/06 09:03:37;;;;;;;22.87;13.03;;;;;;;16.48;100.00;102024.97;7398736;19;20411;-53
2021/09/06 09:06:08;;;;;;;19.87;12.17;;;;;;;16.66;100.00;102027.34;7399785;19;20393;-56
2021/09/06 09:08:38;;;;;;;22.70;13.63;;;;;;;16.75;100.00;102026.78;7402247;19;20388;-54
2021/09/06 09:11:09;;;;;;;23.00;12.80;;;;;;;16.78;100.00;102024.31;7400314;19;20388;-60
2021/09/06 09:13:41;;;;;;;23.03;12.97;;;;;;;16.88;100.00;102023.78;7400781;19;20419;-57
2021/09/06 09:16:11;;;;;;;20.50;12.20;;;;;;;16.88;100.00;102018.59;7398956;19;20393;-58
2021/09/06 09:18:40;;;;;;;20.63;13.00;;;;;;;16.84;100.00;102014.13;7402739;19;20403;-56
2021/09/06 09:21:14;;;;;;;26.03;14.10;;;;;;;16.90;100.00;102010.81;7399468;19;20460;-56
2021/09/06 09:23:46;;;;;;;22.73;12.40;;;;;;;17.12;100.00;102020.31;7400974;19;20423;-56
2021/09/06 09:26:16;;;;;;;21.30;12.43;;;;;;;17.17;100.00;102015.25;7398154;19;20403;-57
2021/09/06 09:28:50;;;;;;;22.97;12.70;;;;;;;17.28;100.00;102007.81;7402707;19;20870;-58
2021/09/06 09:31:20;;;;;;;24.00;13.70;;;;;;;17.43;100.00;102001.34;7399747;19;20415;-55
2021/09/06 09:33:57;;;;;;;23.27;13.43;;;;;;;17.60;100.00;102004.50;7402830;19;20909;-57
2021/09/06 09:36:31;;;;;;;24.63;14.07;;;;;;;17.56;100.00;101998.28;7398135;19;20425;-58
2021/09/06 09:39:09;;;;;;;22.20;12.77;;;;;;;17.60;100.00;102001.88;7402488;19;20658;-56
2021/09/06 09:41:39;;;;;;;24.40;12.50;;;;;;;17.85;100.00;102000.97;7397289;19;20407;-54
2021/09/06 09:44:16;;;;;;;20.33;12.70;;;;;;;18.09;100.00;101989.50;7402371;19;20641;-54
2021/09/06 09:46:55;;;;;;;21.17;11.00;;;;;;;18.07;100.00;101996.44;7398218;19;20493;-54
2021/09/06 09:49:25;;;;;;;21.50;12.70;;;;;;;18.12;100.00;101988.72;7402136;19;20388;-56
2021/09/06 09:51:55;;;;;;;22.60;12.87;;;;;;;17.86;100.00;101989.69;7398142;19;20483;-57
2021/09/06 09:54:26;;;;;;;21.20;12.80;;;;;;;18.12;100.00;101989.63;7401712;19;20392;-51
2021/09/06 09:56:56;;;;;;;21.67;13.27;;;;;;;18.02;100.00;101996.25;7397813;19;20418;-50
2021/09/06 09:59:28;;;;;;;22.43;13.03;;;;;;;18.40;100.00;101982.59;7401217;19;20796;-56
2021/09/06 10:02:02;;;;;;;19.00;12.20;;;;;;;18.52;100.00;101989.00;7393811;19;20517;-52
2021/09/06 10:04:34;;;;;;;23.80;13.50;;;;;;;18.58;100.00;101984.84;7401592;19;20653;-56
2021/09/06 10:07:06;;;;;;;20.43;13.27;;;;;;;18.54;100.00;101982.09;7394393;19;20482;-52
2021/09/06 10:09:42;;;;;;;22.27;13.47;;;;;;;18.41;100.00;101986.97;7401621;19;20417;-53
2021/09/06 10:12:14;;;;;;;21.57;13.63;;;;;;;18.60;100.00;101977.03;7393882;19;20413;-57
2021/09/06 10:14:54;;;;;;;26.93;15.90;;;;;;;18.41;100.00;101980.88;7401527;19;20463;-53
2021/09/06 10:17:37;;;;;;;21.97;14.60;;;;;;;18.43;100.00;101984.41;7393494;19;20423;-58
2021/09/06 10:20:19;;;;;;;21.80;12.57;;;;;;;18.37;100.00;101979.00;7401169;19;20396;-53
2021/09/06 10:22:50;;;;;;;20.90;13.00;;;;;;;18.42;100.00;101985.25;7392551;19;20507;-51
2021/09/06 10:25:21;;;;;;;23.43;14.40;;;;;;;18.44;100.00;101987.06;7401083;19;20653;-53
2021/09/06 10:27:57;;;;;;;24.43;14.90;;;;;;;18.33;100.00;101973.69;7394373;19;20419;-52
2021/09/06 10:30:38;;;;;;;26.03;13.47;;;;;;;18.44;100.00;101970.50;7400356;19;20401;-59
2021/09/06 10:33:09;;;;;;;25.10;14.97;;;;;;;18.67;100.00;101978.97;7395925;19;20738;-54
2021/09/06 10:35:39;;;;;;;27.23;13.07;;;;;;;18.85;100.00;101972.47;7399753;19;20392;-55
2021/09/06 10:38:10;;;;;;;19.83;12.63;;;;;;;19.00;100.00;101972.91;7392726;19;20876;-57
2021/09/06 10:40:43;;;;;;;22.23;13.47;;;;;;;18.94;100.00;101971.84;7401088;19;20483;-57
2021/09/06 10:43:17;;;;;;;22.80;14.10;;;;;;;18.83;100.00;101974.19;7393141;19;20431;-54
2021/09/06 10:45:52;;;;;;;23.37;12.80;;;;;;;18.93;100.00;101968.34;7399642;19;20698;-54
2021/09/06 10:48:24;;;;;;;19.70;11.40;;;;;;;18.73;100.00;101971.28;7393341;19;20415;-57
2021/09/06 10:50:57;;;;;;;23.83;12.43;;;;;;;18.69;100.00;101977.31;7400245;19;20475;-56
2021/09/06 10:53:27;;;;;;;19.90;13.13;;;;;;;18.89;100.00;101970.00;7397487;19;20961;-52
2021/09/06 10:55:58;;;;;;;27.20;17.43;;;;;;;18.97;100.00;101972.81;7399267;19;20886;-53
2021/09/06 10:58:29;;;;;;;25.70;15.23;;;;;;;19.01;100.00;101974.66;7399108;19;20419;-57
2021/09/06 11:01:04;;;;;;;18.40;12.10;;;;;;;19.16;100.00;101974.22;7396372;19;20394;-59
2021/09/06 11:03:39;;;;;;;23.20;13.97;;;;;;;19.19;100.00;101970.78;7397598;19;20929;-59
2021/09/06 11:06:09;;;;;;;22.07;12.77;;;;;;;18.85;100.00;101977.69;7395997;19;20458;-60
2021/09/06 11:08:40;;;;;;;22.87;12.27;;;;;;;18.66;100.00;101971.97;7399169;19;20847;-59
2021/09/06 11:11:11;;;;;;;18.10;11.93;;;;;;;18.71;100.00;101970.38;7396553;19;20388;-56
2021/09/06 11:13:42;;;;;;;23.30;13.27;;;;;;;18.69;100.00;101965.94;7396474;19;20432;-57
2021/09/06 11:16:15;;;;;;;28.83;15.70;;;;;;;18.56;100.00;101960.38;7395758;19;20383;-56
2021/09/06 11:18:46;;;;;;;18.90;10.93;;;;;;;19.01;100.00;101964.19;7399816;19;20655;-59